sensor_id;sensor_type;location;lat;lon;timestamp;pressure;altitude;pressure_sealevel;temperature;humidity
62152;BME280;48139;47.474;19.034;2023-05-02T03:49:22;100477.25;;;12.62;63.70
62152;BME280;48139;47.474;19.034;2023-05-02T03:52:26;100477.25;;;12.62;63.70
62152;BME280;48139;47.474;19.034;2023-05-02T03:55:29;100486.81;;;12.12;65.45
62152;BME280;48139;47.474;19.034;2023-05-02T03:58:33;100493.38;;;12.21;64.77
62152;BME280;48139;47.474;19.034;2023-05-02T04:01:38;100492.53;;;12.21;64.98
62152;BME280;48139;47.474;19.034;2023-05-02T04:04:41;100495.00;;;12.24;64.19
62152;BME280;48139;47.474;19.034;2023-05-02T04:07:44;100501.87;;;12.26;64.86
62152;BME280;48139;47.474;19.034;2023-05-02T04:10:50;100505.28;;;12.28;66.54
62152;BME280;48139;47.474;19.034;2023-05-02T04:13:53;100501.41;;;12.35;64.51
62152;BME280;48139;47.474;19.034;2023-05-02T04:16:56;100501.22;;;12.38;67.16
62152;BME280;48139;47.474;19.034;2023-05-02T04:19:59;100491.75;;;12.36;65.69
62152;BME280;48139;47.474;19.034;2023-05-02T04:23:07;100513.03;;;12.47;64.71
62152;BME280;48139;47.474;19.034;2023-05-02T04:26:10;100506.00;;;12.47;66.54
62152;BME280;48139;47.474;19.034;2023-05-02T04:29:13;100503.91;;;12.54;67.45
62152;BME280;48139;47.474;19.034;2023-05-02T04:32:17;100506.16;;;12.62;68.51
62152;BME280;48139;47.474;19.034;2023-05-02T04:35:20;100508.34;;;12.69;65.54
62152;BME280;48139;47.474;19.034;2023-05-02T04:38:23;100517.19;;;12.84;65.23
62152;BME280;48139;47.474;19.034;2023-05-02T04:41:26;100516.88;;;12.90;65.16
62152;BME280;48139;47.474;19.034;2023-05-02T04:44:30;100507.53;;;13.00;66.31
62152;BME280;48139;47.474;19.034;2023-05-02T04:47:33;100504.97;;;13.16;64.57
62152;BME280;48139;47.474;19.034;2023-05-02T04:50:39;100513.34;;;13.38;64.00
62152;BME280;48139;47.474;19.034;2023-05-02T04:53:43;100522.84;;;13.41;63.72
62152;BME280;48139;47.474;19.034;2023-05-02T04:56:46;100522.16;;;13.53;64.57
62152;BME280;48139;47.474;19.034;2023-05-02T04:59:50;100519.75;;;13.64;63.76
62152;BME280;48139;47.474;19.034;2023-05-02T05:02:53;100523.47;;;13.76;62.36
62152;BME280;48139;47.474;19.034;2023-05-02T05:05:55;100524.06;;;13.81;62.41
62152;BME280;48139;47.474;19.034;2023-05-02T05:09:00;100537.84;;;14.00;62.85
62152;BME280;48139;47.474;19.034;2023-05-02T05:12:07;100522.03;;;14.00;64.76
62152;BME280;48139;47.474;19.034;2023-05-02T05:15:10;100533.75;;;14.10;63.70
62152;BME280;48139;47.474;19.034;2023-05-02T05:18:14;100526.72;;;14.10;62.80
62152;BME280;48139;47.474;19.034;2023-05-02T05:21:17;100528.28;;;14.13;63.91
62152;BME280;48139;47.474;19.034;2023-05-02T05:24:21;100524.69;;;14.30;63.01
62152;BME280;48139;47.474;19.034;2023-05-02T05:27:24;100538.37;;;14.50;63.24
62152;BME280;48139;47.474;19.034;2023-05-02T05:30:27;100541.13;;;14.63;63.18
62152;BME280;48139;47.474;19.034;2023-05-02T05:33:33;100544.41;;;14.95;63.60
62152;BME280;48139;47.474;19.034;2023-05-02T05:36:39;100541.47;;;15.28;61.44
62152;BME280;48139;47.474;19.034;2023-05-02T05:39:41;100542.72;;;15.49;61.36
62152;BME280;48139;47.474;19.034;2023-05-02T05:42:44;100547.59;;;15.69;64.22
62152;BME280;48139;47.474;19.034;2023-05-02T05:45:48;100552.41;;;15.90;64.41
62152;BME280;48139;47.474;19.034;2023-05-02T05:48:53;100552.13;;;16.07;56.40
62152;BME280;48139;47.474;19.034;2023-05-02T05:51:56;100548.41;;;16.36;58.52
62152;BME280;48139;47.474;19.034;2023-05-02T05:54:59;100558.00;;;16.50;56.26
62152;BME280;48139;47.474;19.034;2023-05-02T05:58:02;100555.41;;;16.63;57.01
62152;BME280;48139;47.474;19.034;2023-05-02T06:01:07;100553.50;;;16.77;53.23
62152;BME280;48139;47.474;19.034;2023-05-02T06:04:10;100557.72;;;17.05;51.88
62152;BME280;48139;47.474;19.034;2023-05-02T06:07:14;100559.28;;;17.08;51.99
62152;BME280;48139;47.474;19.034;2023-05-02T06:10:17;100562.37;;;17.02;52.04
62152;BME280;48139;47.474;19.034;2023-05-02T06:13:20;100556.88;;;17.05;52.06
62152;BME280;48139;47.474;19.034;2023-05-02T06:16:24;100566.37;;;17.20;51.40
62152;BME280;48139;47.474;19.034;2023-05-02T06:19:27;100563.81;;;17.18;51.73
62152;BME280;48139;47.474;19.034;2023-05-02T06:22:30;100561.72;;;17.23;50.76
62152;BME280;48139;47.474;19.034;2023-05-02T06:25:36;100562.44;;;17.25;51.01
62152;BME280;48139;47.474;19.034;2023-05-02T06:28:39;100550.88;;;17.26;51.00
62152;BME280;48139;47.474;19.034;2023-05-02T06:31:41;100559.56;;;17.28;51.86
62152;BME280;48139;47.474;19.034;2023-05-02T06:34:44;100562.84;;;17.32;51.52
62152;BME280;48139;47.474;19.034;2023-05-02T06:37:47;100556.38;;;17.36;51.43
62152;BME280;48139;47.474;19.034;2023-05-02T06:40:50;100565.84;;;17.64;51.21
62152;BME280;48139;47.474;19.034;2023-05-02T06:43:53;100563.84;;;17.67;50.88
62152;BME280;48139;47.474;19.034;2023-05-02T06:46:56;100567.25;;;17.81;50.09
62152;BME280;48139;47.474;19.034;2023-05-02T06:49:58;100565.03;;;17.74;50.39
62152;BME280;48139;47.474;19.034;2023-05-02T06:53:03;100568.00;;;17.83;50.24
62152;BME280;48139;47.474;19.034;2023-05-02T06:56:05;100563.63;;;18.05;50.04
62152;BME280;48139;47.474;19.034;2023-05-02T06:59:08;100565.63;;;18.26;50.03
62152;BME280;48139;47.474;19.034;2023-05-02T07:02:11;100569.63;;;18.77;48.29
62152;BME280;48139;47.474;19.034;2023-05-02T07:05:14;100571.69;;;18.85;47.74
62152;BME280;48139;47.474;19.034;2023-05-02T07:08:17;100568.00;;;18.52;48.14
62152;BME280;48139;47.474;19.034;2023-05-02T07:11:23;100569.63;;;18.66;49.21
62152;BME280;48139;47.474;19.034;2023-05-02T07:14:27;100564.38;;;18.53;48.56
62152;BME280;48139;47.474;19.034;2023-05-02T07:17:29;100568.28;;;18.61;48.01
62152;BME280;48139;47.474;19.034;2023-05-02T07:20:32;100562.72;;;18.64;47.75
62152;BME280;48139;47.474;19.034;2023-05-02T07:23:37;100566.03;;;18.78;48.48
62152;BME280;48139;47.474;19.034;2023-05-02T07:26:39;100555.66;;;19.09;47.30
62152;BME280;48139;47.474;19.034;2023-05-02T07:29:42;100560.34;;;19.05;46.49
62152;BME280;48139;47.474;19.034;2023-05-02T07:32:45;100571.69;;;19.29;46.70
62152;BME280;48139;47.474;19.034;2023-05-02T07:35:48;100570.78;;;19.62;46.48
62152;BME280;48139;47.474;19.034;2023-05-02T07:38:51;100568.25;;;19.72;45.70
62152;BME280;48139;47.474;19.034;2023-05-02T07:41:54;100564.97;;;19.68;45.15
62152;BME280;48139;47.474;19.034;2023-05-02T07:44:57;100568.31;;;19.82;45.78
62152;BME280;48139;47.474;19.034;2023-05-02T07:48:00;100566.97;;;19.87;44.82
62152;BME280;48139;47.474;19.034;2023-05-02T07:51:09;100570.06;;;19.71;44.88
62152;BME280;48139;47.474;19.034;2023-05-02T07:54:20;100568.84;;;19.76;45.35
62152;BME280;48139;47.474;19.034;2023-05-02T07:57:23;100573.88;;;19.90;45.28
62152;BME280;48139;47.474;19.034;2023-05-02T08:00:26;100572.63;;;19.94;45.38
62152;BME280;48139;47.474;19.034;2023-05-02T08:03:30;100575.28;;;19.94;45.66
62152;BME280;48139;47.474;19.034;2023-05-02T08:06:32;100571.53;;;19.96;44.82
62152;BME280;48139;47.474;19.034;2023-05-02T08:09:36;100572.13;;;20.00;45.14
62152;BME280;48139;47.474;19.034;2023-05-02T08:12:41;100569.81;;;20.06;45.62
62152;BME280;48139;47.474;19.034;2023-05-02T08:15:44;100569.63;;;20.19;46.10
62152;BME280;48139;47.474;19.034;2023-05-02T08:18:47;100577.78;;;20.06;44.47
62152;BME280;48139;47.474;19.034;2023-05-02T08:21:50;100578.28;;;19.68;46.26
62152;BME280;48139;47.474;19.034;2023-05-02T08:24:52;100581.81;;;19.58;46.69
62152;BME280;48139;47.474;19.034;2023-05-02T08:27:55;100577.03;;;19.84;46.89
62152;BME280;48139;47.474;19.034;2023-05-02T08:30:58;100573.84;;;20.22;45.06
62152;BME280;48139;47.474;19.034;2023-05-02T08:34:01;100580.13;;;20.52;43.96
62152;BME280;48139;47.474;19.034;2023-05-02T08:37:09;100566.03;;;20.41;44.92
62152;BME280;48139;47.474;19.034;2023-05-02T08:40:13;100557.00;;;20.32;45.03
62152;BME280;48139;47.474;19.034;2023-05-02T08:43:16;100557.34;;;20.39;44.83
62152;BME280;48139;47.474;19.034;2023-05-02T08:46:21;100562.34;;;20.53;44.68
62152;BME280;48139;47.474;19.034;2023-05-02T08:49:26;100556.28;;;20.51;44.77
62152;BME280;48139;47.474;19.034;2023-05-02T08:52:31;100555.22;;;20.22;44.90
62152;BME280;48139;47.474;19.034;2023-05-02T08:55:37;100559.69;;;20.32;48.12
62152;BME280;48139;47.474;19.034;2023-05-02T08:58:41;100559.59;;;20.94;45.62
62152;BME280;48139;47.474;19.034;2023-05-02T09:01:44;100551.31;;;21.18;43.17
62152;BME280;48139;47.474;19.034;2023-05-02T09:04:53;100552.34;;;21.27;42.52
62152;BME280;48139;47.474;19.034;2023-05-02T09:07:56;100554.94;;;21.57;42.77
62152;BME280;48139;47.474;19.034;2023-05-02T09:11:00;100540.81;;;22.15;41.31
62152;BME280;48139;47.474;19.034;2023-05-02T09:14:13;100546.69;;;22.18;41.29
62152;BME280;48139;47.474;19.034;2023-05-02T09:17:17;100545.47;;;22.03;42.38
62152;BME280;48139;47.474;19.034;2023-05-02T09:20:19;100542.22;;;22.19;40.04
62152;BME280;48139;47.474;19.034;2023-05-02T09:23:38;100541.22;;;22.29;39.82
62152;BME280;48139;47.474;19.034;2023-05-02T09:26:40;100542.72;;;22.51;40.35
62152;BME280;48139;47.474;19.034;2023-05-02T09:29:43;100544.94;;;22.56;39.60
62152;BME280;48139;47.474;19.034;2023-05-02T09:32:48;100543.44;;;22.43;39.17
62152;BME280;48139;47.474;19.034;2023-05-02T09:35:53;100544.03;;;22.18;38.90
62152;BME280;48139;47.474;19.034;2023-05-02T09:39:08;100545.13;;;22.44;39.86
62152;BME280;48139;47.474;19.034;2023-05-02T09:42:11;100544.09;;;22.55;38.95
62152;BME280;48139;47.474;19.034;2023-05-02T09:45:24;100541.44;;;22.65;38.89
62152;BME280;48139;47.474;19.034;2023-05-02T09:48:28;100535.50;;;22.71;38.94
62152;BME280;48139;47.474;19.034;2023-05-02T09:51:30;100534.19;;;22.94;39.08
62152;BME280;48139;47.474;19.034;2023-05-02T09:54:34;100526.38;;;23.10;38.04
62152;BME280;48139;47.474;19.034;2023-05-02T09:57:40;100530.41;;;22.87;37.55
62152;BME280;48139;47.474;19.034;2023-05-02T10:00:44;100532.22;;;22.96;37.31
62152;BME280;48139;47.474;19.034;2023-05-02T10:03:47;100526.94;;;23.31;36.62
62152;BME280;48139;47.474;19.034;2023-05-02T10:06:51;100532.31;;;23.31;36.93
62152;BME280;48139;47.474;19.034;2023-05-02T10:09:57;100534.97;;;23.31;36.30
62152;BME280;48139;47.474;19.034;2023-05-02T10:13:02;100539.97;;;23.44;36.35
62152;BME280;48139;47.474;19.034;2023-05-02T10:16:06;100536.50;;;23.34;37.31
62152;BME280;48139;47.474;19.034;2023-05-02T10:19:09;100529.72;;;23.67;37.17
62152;BME280;48139;47.474;19.034;2023-05-02T10:22:14;100522.81;;;24.00;36.39
62152;BME280;48139;47.474;19.034;2023-05-02T10:25:20;100525.13;;;23.95;36.67
62152;BME280;48139;47.474;19.034;2023-05-02T10:28:23;100524.63;;;23.74;36.29
62152;BME280;48139;47.474;19.034;2023-05-02T10:31:27;100523.38;;;23.86;36.78
62152;BME280;48139;47.474;19.034;2023-05-02T10:34:35;100515.41;;;23.94;36.21
62152;BME280;48139;47.474;19.034;2023-05-02T10:37:38;100518.25;;;23.75;36.54
62152;BME280;48139;47.474;19.034;2023-05-02T10:40:47;100518.13;;;23.04;37.26
62152;BME280;48139;47.474;19.034;2023-05-02T10:43:58;100522.41;;;23.14;37.75
62152;BME280;48139;47.474;19.034;2023-05-02T10:50:20;100513.34;;;23.52;37.10
62152;BME280;48139;47.474;19.034;2023-05-02T10:53:26;100518.47;;;23.81;36.75
62152;BME280;48139;47.474;19.034;2023-05-02T10:56:29;100515.28;;;23.78;37.65
62152;BME280;48139;47.474;19.034;2023-05-02T11:06:04;100497.53;;;23.77;38.36
62152;BME280;48139;47.474;19.034;2023-05-02T11:15:55;100487.97;;;23.56;39.34
62152;BME280;48139;47.474;19.034;2023-05-02T11:18:59;100491.81;;;23.71;38.63
62152;BME280;48139;47.474;19.034;2023-05-02T11:25:29;100480.28;;;24.15;37.32
62152;BME280;48139;47.474;19.034;2023-05-02T11:28:44;100487.59;;;24.04;38.51
62152;BME280;48139;47.474;19.034;2023-05-02T11:34:53;100478.50;;;24.41;37.97
62152;BME280;48139;47.474;19.034;2023-05-02T11:38:02;100482.31;;;24.38;37.00
62152;BME280;48139;47.474;19.034;2023-05-02T11:41:05;100481.37;;;23.86;38.15
62152;BME280;48139;47.474;19.034;2023-05-02T11:44:08;100479.84;;;24.01;38.12
62152;BME280;48139;47.474;19.034;2023-05-02T11:47:10;100473.91;;;23.90;37.65
62152;BME280;48139;47.474;19.034;2023-05-02T11:50:16;100470.87;;;23.67;38.20
62152;BME280;48139;47.474;19.034;2023-05-02T11:53:24;100460.31;;;23.65;40.14
62152;BME280;48139;47.474;19.034;2023-05-02T11:56:27;100466.44;;;23.76;38.07
62152;BME280;48139;47.474;19.034;2023-05-02T11:59:30;100455.69;;;23.93;39.19
62152;BME280;48139;47.474;19.034;2023-05-02T12:02:37;100456.53;;;24.37;38.04
62152;BME280;48139;47.474;19.034;2023-05-02T12:05:40;100457.59;;;24.78;35.31
62152;BME280;48139;47.474;19.034;2023-05-02T12:08:43;100449.16;;;24.65;35.39
62152;BME280;48139;47.474;19.034;2023-05-02T12:11:52;100453.41;;;24.42;36.65
62152;BME280;48139;47.474;19.034;2023-05-02T12:14:56;100461.84;;;24.11;35.96
62152;BME280;48139;47.474;19.034;2023-05-02T12:17:58;100455.59;;;24.21;34.84
62152;BME280;48139;47.474;19.034;2023-05-02T12:21:03;100446.97;;;24.61;34.86
62152;BME280;48139;47.474;19.034;2023-05-02T12:24:07;100443.94;;;24.89;33.84
62152;BME280;48139;47.474;19.034;2023-05-02T12:27:13;100442.81;;;24.74;33.26
62152;BME280;48139;47.474;19.034;2023-05-02T12:30:26;100444.81;;;24.64;33.38
62152;BME280;48139;47.474;19.034;2023-05-02T12:33:28;100447.19;;;24.67;33.52
62152;BME280;48139;47.474;19.034;2023-05-02T12:36:31;100438.25;;;24.59;33.71
62152;BME280;48139;47.474;19.034;2023-05-02T12:39:39;100432.56;;;24.62;33.67
62152;BME280;48139;47.474;19.034;2023-05-02T12:42:59;100441.34;;;24.80;32.73
62152;BME280;48139;47.474;19.034;2023-05-02T12:46:09;100442.78;;;24.92;32.90
62152;BME280;48139;47.474;19.034;2023-05-02T12:49:12;100446.16;;;24.68;32.20
62152;BME280;48139;47.474;19.034;2023-05-02T12:52:18;100439.94;;;24.60;33.00
62152;BME280;48139;47.474;19.034;2023-05-02T12:55:24;100444.81;;;24.64;32.69
62152;BME280;48139;47.474;19.034;2023-05-02T12:58:29;100442.06;;;24.48;33.15
62152;BME280;48139;47.474;19.034;2023-05-02T13:01:33;100438.31;;;24.15;33.61
62152;BME280;48139;47.474;19.034;2023-05-02T13:04:38;100434.56;;;24.08;34.25
62152;BME280;48139;47.474;19.034;2023-05-02T13:07:42;100441.09;;;23.88;34.82
62152;BME280;48139;47.474;19.034;2023-05-02T13:10:46;100431.66;;;23.76;34.95
62152;BME280;48139;47.474;19.034;2023-05-02T13:13:49;100429.53;;;23.79;35.66
62152;BME280;48139;47.474;19.034;2023-05-02T13:16:51;100425.34;;;23.59;35.78
62152;BME280;48139;47.474;19.034;2023-05-02T13:19:57;100424.50;;;23.58;36.12
62152;BME280;48139;47.474;19.034;2023-05-02T13:23:03;100424.41;;;23.50;36.21
62152;BME280;48139;47.474;19.034;2023-05-02T13:26:06;100431.50;;;23.42;36.34
62152;BME280;48139;47.474;19.034;2023-05-02T13:29:09;100423.63;;;23.22;36.33
62152;BME280;48139;47.474;19.034;2023-05-02T13:32:13;100424.59;;;23.21;36.11
62152;BME280;48139;47.474;19.034;2023-05-02T13:35:15;100426.53;;;23.29;37.26
62152;BME280;48139;47.474;19.034;2023-05-02T13:38:18;100420.78;;;23.24;35.95
62152;BME280;48139;47.474;19.034;2023-05-02T13:41:20;100415.50;;;23.32;37.28
62152;BME280;48139;47.474;19.034;2023-05-02T13:44:26;100412.56;;;23.35;36.47
62152;BME280;48139;47.474;19.034;2023-05-02T13:47:28;100418.50;;;23.29;36.36
62152;BME280;48139;47.474;19.034;2023-05-02T13:50:31;100425.00;;;23.26;35.78
62152;BME280;48139;47.474;19.034;2023-05-02T13:53:38;100415.88;;;23.19;36.42
62152;BME280;48139;47.474;19.034;2023-05-02T13:56:41;100414.19;;;23.18;36.97
62152;BME280;48139;47.474;19.034;2023-05-02T13:59:44;100419.16;;;23.13;37.01
62152;BME280;48139;47.474;19.034;2023-05-02T14:02:46;100419.13;;;23.23;35.60
62152;BME280;48139;47.474;19.034;2023-05-02T14:05:50;100417.81;;;23.27;35.83
62152;BME280;48139;47.474;19.034;2023-05-02T14:08:53;100421.19;;;23.29;35.58
62152;BME280;48139;47.474;19.034;2023-05-02T14:11:56;100416.34;;;23.32;35.27
62152;BME280;48139;47.474;19.034;2023-05-02T14:14:59;100406.03;;;23.38;34.54
62152;BME280;48139;47.474;19.034;2023-05-02T14:18:02;100407.50;;;23.32;34.95
62152;BME280;48139;47.474;19.034;2023-05-02T14:21:05;100416.03;;;23.18;35.31
62152;BME280;48139;47.474;19.034;2023-05-02T14:24:08;100419.50;;;23.10;35.20
62152;BME280;48139;47.474;19.034;2023-05-02T14:27:10;100416.63;;;23.12;34.94
62152;BME280;48139;47.474;19.034;2023-05-02T14:30:19;100413.59;;;23.07;35.08
62152;BME280;48139;47.474;19.034;2023-05-02T14:33:21;100413.44;;;23.08;36.27
62152;BME280;48139;47.474;19.034;2023-05-02T14:36:24;100409.41;;;23.04;37.00
62152;BME280;48139;47.474;19.034;2023-05-02T14:39:28;100404.97;;;23.13;35.69
62152;BME280;48139;47.474;19.034;2023-05-02T14:42:30;100414.75;;;23.04;35.80
62152;BME280;48139;47.474;19.034;2023-05-02T14:45:33;100412.38;;;23.01;36.34
62152;BME280;48139;47.474;19.034;2023-05-02T14:48:36;100410.03;;;22.88;36.12
62152;BME280;48139;47.474;19.034;2023-05-02T14:51:39;100410.50;;;22.84;36.31
62152;BME280;48139;47.474;19.034;2023-05-02T14:54:42;100424.00;;;22.82;36.96
62152;BME280;48139;47.474;19.034;2023-05-02T14:57:44;100425.59;;;22.75;36.39
62152;BME280;48139;47.474;19.034;2023-05-02T15:00:47;100423.22;;;22.63;36.99
62152;BME280;48139;47.474;19.034;2023-05-02T15:03:50;100424.06;;;22.63;36.42
62152;BME280;48139;47.474;19.034;2023-05-02T15:07:08;100418.28;;;22.68;36.92
62152;BME280;48139;47.474;19.034;2023-05-02T15:10:11;100418.28;;;22.68;35.96
62152;BME280;48139;47.474;19.034;2023-05-02T15:13:15;100434.75;;;22.63;37.11
62152;BME280;48139;47.474;19.034;2023-05-02T15:16:17;100432.31;;;22.42;37.29
62152;BME280;48139;47.474;19.034;2023-05-02T15:19:20;100421.41;;;22.26;38.14
62152;BME280;48139;47.474;19.034;2023-05-02T15:22:25;100420.44;;;22.18;38.25
62152;BME280;48139;47.474;19.034;2023-05-02T15:25:28;100425.06;;;22.25;38.05
62152;BME280;48139;47.474;19.034;2023-05-02T15:28:31;100409.31;;;22.32;37.76
62152;BME280;48139;47.474;19.034;2023-05-02T15:31:34;100410.53;;;22.37;37.43
62152;BME280;48139;47.474;19.034;2023-05-02T15:34:37;100413.31;;;22.45;37.39
62152;BME280;48139;47.474;19.034;2023-05-02T15:37:39;100408.12;;;22.44;36.96
62152;BME280;48139;47.474;19.034;2023-05-02T15:40:42;100409.53;;;22.48;36.71
62152;BME280;48139;47.474;19.034;2023-05-02T15:43:44;100407.00;;;22.46;36.89
62152;BME280;48139;47.474;19.034;2023-05-02T15:46:47;100408.31;;;22.42;36.57
62152;BME280;48139;47.474;19.034;2023-05-02T15:49:51;100404.53;;;22.35;37.04
62152;BME280;48139;47.474;19.034;2023-05-02T15:52:55;100403.69;;;22.35;36.58
